Aérodrome :
LOGIN :

S'inscrire | Disclaimer

   EN    FR    IT 

 










Légende :    VFR   VFR Marginal   IFR   IFR Intensif   IFR Très Intensif
Visi : 
Plafond : 
>= 8 km
>= 3000ft
5 à 8 km
1000 à 3000 ft
1500m à 5 km
500 à 1000 ft
800 à 1500m
200 à 500 ft
< 800m
< 200 ft
Symboles :   Orages  Brouillard  Fortes neiges  Fortes précipitations  Vent > 20 kt
SIGMETs :   Divers  Orages  Givrage  Turbulence  Onde Orograph.  Cendres Volcan.







- Altitude de l'aérodrome : 468 ft
- Code IATA : GRO


LEGE - Girona Costa Brava

DERNIER METAR :
  • 190030Z 04010KT 9999 SCT057 17/14 Q1014

METARs EXPIRÉS :
  • 190000Z 03011KT 9999 SCT080 17/14 Q1013
  • 182330Z 03011KT 9999 SCT080 17/15 Q1014
  • 182300Z 03009KT 9999 FEW087 17/15 Q1014
  • 182230Z 03007KT 9999 BKN090 18/15 Q1014

TAF TAF LEGE
Valide du 19 à 00h jusqu'au 20 à 00h UTC


182300Z 1900/1924 02010KT 9999 SCT020 BKN040 TX23/1913Z TN17/1906Z
PROB30
TEMPO 1910/1917 4000 SHRA BKN014 FEW020TCU
BECMG 1918/1921 34006KT
Pas de NOTAMs connus pour ce terrain.
3 SIGMETs publiés pour la FIR Barcelona (LECB) :
 
Orages noyés dans la masse
LECB SIGMET 2 VALID 190100/190400 LEVA
LECB BARCELONA FIR/UIR EMBD TS OBS AT 0029Z WI N3940 E00330 - N4120 E004 - N4130 W001 - N3940 W00120 - N3940 E00330 TOP FL380 MOV W NC=
Orages noyés dans la masse
LECB SIGMET 13 VALID 182200/190100 LEVA
LECB BARCELONA FIR/UIR EMBD TS OBS AT 2143Z WI N39 E00340 - N4050 E00420 - N4120 W001 - N3930 W00120 - N39 E00340 TOP FL380 MOV W NC=
Turbulence forte
LECB SIGMET 1 VALID 190100/190400 LEVA
LECB BARCELONA FIR/UIR SEV TURB OBS AT 0026Z WI N3940 W00110 - N3940 E00040 - N3710 E00020 - N36 W00210 - N3940 W00110 FL180/340 STNR NC=



MET'MAP, la Météo Aéronautique d'un coup d'oeil ! - Copyright ORBIFLY Décembre 2007 - Disclaimer

ORBIFLY MET'MAP TEAM :

Programmation & Développement : Alexandra Zaïnal
Conception & Développement : Baudouin d'Aumeries
Co-Programmation & Développement : Marc-Olivier Méhu
Soutien technique & logistique : Manuel Goepfert

Contact : metmap@orbifly.com




SOURCES & CREDITS :

   NOAA